sensor_id;sensor_type;location;lat;lon;timestamp;temperature;humidity
63802;DHT22;49949;43.060;25.624;2023-04-19T00:00:33;10.50;99.90
63802;DHT22;49949;43.060;25.624;2023-04-19T00:03:04;10.50;99.90
63802;DHT22;49949;43.060;25.624;2023-04-19T00:05:30;10.50;99.90
63802;DHT22;49949;43.060;25.624;2023-04-19T00:07:56;10.50;99.90
63802;DHT22;49949;43.060;25.624;2023-04-19T00:10:22;10.40;99.90
63802;DHT22;49949;43.060;25.624;2023-04-19T00:12:47;10.40;99.90
63802;DHT22;49949;43.060;25.624;2023-04-19T00:15:13;10.40;99.90
63802;DHT22;49949;43.060;25.624;2023-04-19T00:17:39;10.30;99.90
63802;DHT22;49949;43.060;25.624;2023-04-19T00:20:05;10.30;99.90
63802;DHT22;49949;43.060;25.624;2023-04-19T00:22:31;10.30;99.90
63802;DHT22;49949;43.060;25.624;2023-04-19T00:24:57;10.30;99.90
63802;DHT22;49949;43.060;25.624;2023-04-19T00:27:22;10.30;99.90
63802;DHT22;49949;43.060;25.624;2023-04-19T00:29:48;10.30;99.90
63802;DHT22;49949;43.060;25.624;2023-04-19T00:32:14;10.30;99.90
63802;DHT22;49949;43.060;25.624;2023-04-19T00:34:40;10.30;99.90
63802;DHT22;49949;43.060;25.624;2023-04-19T00:37:07;10.30;99.90
63802;DHT22;49949;43.060;25.624;2023-04-19T00:39:33;10.30;99.90
63802;DHT22;49949;43.060;25.624;2023-04-19T00:41:59;10.20;99.90
63802;DHT22;49949;43.060;25.624;2023-04-19T00:44:25;10.30;99.90
63802;DHT22;49949;43.060;25.624;2023-04-19T00:46:51;10.20;99.90
63802;DHT22;49949;43.060;25.624;2023-04-19T00:49:19;10.20;99.90
63802;DHT22;49949;43.060;25.624;2023-04-19T00:51:45;10.20;99.90
63802;DHT22;49949;43.060;25.624;2023-04-19T00:54:12;10.20;99.90
63802;DHT22;49949;43.060;25.624;2023-04-19T00:56:39;10.20;99.90
63802;DHT22;49949;43.060;25.624;2023-04-19T00:59:06;10.20;99.90
63802;DHT22;49949;43.060;25.624;2023-04-19T01:01:33;10.20;99.90
63802;DHT22;49949;43.060;25.624;2023-04-19T01:04:00;10.20;99.90
63802;DHT22;49949;43.060;25.624;2023-04-19T01:06:29;10.20;99.90
63802;DHT22;49949;43.060;25.624;2023-04-19T01:08:55;10.20;99.90
63802;DHT22;49949;43.060;25.624;2023-04-19T01:11:25;10.20;99.90
63802;DHT22;49949;43.060;25.624;2023-04-19T01:13:51;10.10;99.90
63802;DHT22;49949;43.060;25.624;2023-04-19T01:16:17;10.10;99.90
63802;DHT22;49949;43.060;25.624;2023-04-19T01:18:43;10.10;99.90
63802;DHT22;49949;43.060;25.624;2023-04-19T01:21:09;10.10;99.90
63802;DHT22;49949;43.060;25.624;2023-04-19T01:23:36;10.10;99.90
63802;DHT22;49949;43.060;25.624;2023-04-19T01:26:04;10.00;99.90
63802;DHT22;49949;43.060;25.624;2023-04-19T01:28:30;10.10;99.90
63802;DHT22;49949;43.060;25.624;2023-04-19T01:30:56;10.10;99.90
63802;DHT22;49949;43.060;25.624;2023-04-19T01:33:21;10.10;99.90
63802;DHT22;49949;43.060;25.624;2023-04-19T01:35:48;10.10;99.90
63802;DHT22;49949;43.060;25.624;2023-04-19T01:38:17;10.10;99.90
63802;DHT22;49949;43.060;25.624;2023-04-19T01:40:43;10.00;99.90
63802;DHT22;49949;43.060;25.624;2023-04-19T01:43:15;10.00;99.90
63802;DHT22;49949;43.060;25.624;2023-04-19T01:45:40;10.00;99.90
63802;DHT22;49949;43.060;25.624;2023-04-19T01:48:06;10.00;99.90
63802;DHT22;49949;43.060;25.624;2023-04-19T01:50:32;10.00;99.90
63802;DHT22;49949;43.060;25.624;2023-04-19T01:52:58;9.90;99.90
63802;DHT22;49949;43.060;25.624;2023-04-19T01:55:24;9.90;99.90
63802;DHT22;49949;43.060;25.624;2023-04-19T01:57:50;9.90;99.90
63802;DHT22;49949;43.060;25.624;2023-04-19T02:00:17;9.90;99.90
63802;DHT22;49949;43.060;25.624;2023-04-19T02:02:43;9.90;99.90
63802;DHT22;49949;43.060;25.624;2023-04-19T02:05:09;9.80;99.90
63802;DHT22;49949;43.060;25.624;2023-04-19T02:07:36;9.80;99.90
63802;DHT22;49949;43.060;25.624;2023-04-19T02:10:02;9.70;99.90
63802;DHT22;49949;43.060;25.624;2023-04-19T02:12:28;9.70;99.90
63802;DHT22;49949;43.060;25.624;2023-04-19T02:14:58;9.70;99.90
63802;DHT22;49949;43.060;25.624;2023-04-19T02:17:24;9.70;99.90
63802;DHT22;49949;43.060;25.624;2023-04-19T02:19:51;9.70;99.90
63802;DHT22;49949;43.060;25.624;2023-04-19T02:22:17;9.70;99.90
63802;DHT22;49949;43.060;25.624;2023-04-19T02:24:43;9.70;99.90
63802;DHT22;49949;43.060;25.624;2023-04-19T02:27:09;9.70;99.90
63802;DHT22;49949;43.060;25.624;2023-04-19T02:29:35;9.70;99.90
63802;DHT22;49949;43.060;25.624;2023-04-19T02:32:00;9.70;99.90
63802;DHT22;49949;43.060;25.624;2023-04-19T02:34:30;9.70;99.90
63802;DHT22;49949;43.060;25.624;2023-04-19T02:36:56;9.70;99.90
63802;DHT22;49949;43.060;25.624;2023-04-19T02:39:22;9.70;99.90
63802;DHT22;49949;43.060;25.624;2023-04-19T02:41:48;9.70;99.90
63802;DHT22;49949;43.060;25.624;2023-04-19T02:44:14;9.70;99.90
63802;DHT22;49949;43.060;25.624;2023-04-19T02:46:39;9.80;99.90
63802;DHT22;49949;43.060;25.624;2023-04-19T02:49:05;9.80;99.90
63802;DHT22;49949;43.060;25.624;2023-04-19T02:51:31;9.80;99.90
63802;DHT22;49949;43.060;25.624;2023-04-19T02:53:57;9.80;99.90
63802;DHT22;49949;43.060;25.624;2023-04-19T02:56:22;9.80;99.90
63802;DHT22;49949;43.060;25.624;2023-04-19T02:58:48;9.80;99.90
63802;DHT22;49949;43.060;25.624;2023-04-19T03:01:14;9.80;99.90
63802;DHT22;49949;43.060;25.624;2023-04-19T03:03:39;9.80;99.90
63802;DHT22;49949;43.060;25.624;2023-04-19T03:06:05;9.80;99.90
63802;DHT22;49949;43.060;25.624;2023-04-19T03:08:31;9.90;99.90
63802;DHT22;49949;43.060;25.624;2023-04-19T03:10:57;9.80;99.90
63802;DHT22;49949;43.060;25.624;2023-04-19T03:13:23;9.80;99.90
63802;DHT22;49949;43.060;25.624;2023-04-19T03:15:49;9.80;99.90
63802;DHT22;49949;43.060;25.624;2023-04-19T03:18:15;9.80;99.90
63802;DHT22;49949;43.060;25.624;2023-04-19T03:20:41;9.80;99.90
63802;DHT22;49949;43.060;25.624;2023-04-19T03:23:07;9.80;99.90
63802;DHT22;49949;43.060;25.624;2023-04-19T03:25:33;9.70;99.90
63802;DHT22;49949;43.060;25.624;2023-04-19T03:27:59;9.70;99.90
63802;DHT22;49949;43.060;25.624;2023-04-19T03:30:24;9.70;99.90
63802;DHT22;49949;43.060;25.624;2023-04-19T03:32:50;9.70;99.90
63802;DHT22;49949;43.060;25.624;2023-04-19T03:35:16;9.70;99.90
63802;DHT22;49949;43.060;25.624;2023-04-19T03:37:42;9.70;99.90
63802;DHT22;49949;43.060;25.624;2023-04-19T03:40:08;9.70;99.90
63802;DHT22;49949;43.060;25.624;2023-04-19T03:42:34;9.70;99.90
63802;DHT22;49949;43.060;25.624;2023-04-19T03:45:00;9.70;99.90
63802;DHT22;49949;43.060;25.624;2023-04-19T03:47:26;9.70;99.90
63802;DHT22;49949;43.060;25.624;2023-04-19T03:49:51;9.70;99.90
63802;DHT22;49949;43.060;25.624;2023-04-19T03:52:17;9.70;99.90
63802;DHT22;49949;43.060;25.624;2023-04-19T03:54:43;9.70;99.90
63802;DHT22;49949;43.060;25.624;2023-04-19T03:57:10;9.70;99.90
63802;DHT22;49949;43.060;25.624;2023-04-19T03:59:37;9.70;99.90
63802;DHT22;49949;43.060;25.624;2023-04-19T04:02:04;9.70;99.90
63802;DHT22;49949;43.060;25.624;2023-04-19T04:04:30;9.70;99.90
63802;DHT22;49949;43.060;25.624;2023-04-19T04:06:56;9.70;99.90
63802;DHT22;49949;43.060;25.624;2023-04-19T04:09:21;9.70;99.90
63802;DHT22;49949;43.060;25.624;2023-04-19T04:11:47;9.70;99.90
63802;DHT22;49949;43.060;25.624;2023-04-19T04:14:13;9.70;99.90
63802;DHT22;49949;43.060;25.624;2023-04-19T04:16:38;9.60;99.90
63802;DHT22;49949;43.060;25.624;2023-04-19T04:19:04;9.60;99.90
63802;DHT22;49949;43.060;25.624;2023-04-19T04:21:30;9.60;99.90
63802;DHT22;49949;43.060;25.624;2023-04-19T04:23:56;9.60;99.90
63802;DHT22;49949;43.060;25.624;2023-04-19T04:26:21;9.70;99.90
63802;DHT22;49949;43.060;25.624;2023-04-19T04:28:49;9.60;99.90
63802;DHT22;49949;43.060;25.624;2023-04-19T04:31:15;9.60;99.90
63802;DHT22;49949;43.060;25.624;2023-04-19T04:33:42;9.70;99.90
63802;DHT22;49949;43.060;25.624;2023-04-19T04:36:10;9.70;99.90
63802;DHT22;49949;43.060;25.624;2023-04-19T04:38:36;9.60;99.90
63802;DHT22;49949;43.060;25.624;2023-04-19T04:41:02;9.70;99.90
63802;DHT22;49949;43.060;25.624;2023-04-19T04:43:27;9.60;99.90
63802;DHT22;49949;43.060;25.624;2023-04-19T04:45:54;9.70;99.90
63802;DHT22;49949;43.060;25.624;2023-04-19T04:48:21;9.70;99.90
63802;DHT22;49949;43.060;25.624;2023-04-19T04:50:47;9.70;99.90
63802;DHT22;49949;43.060;25.624;2023-04-19T04:53:13;9.70;99.90
63802;DHT22;49949;43.060;25.624;2023-04-19T04:55:38;9.80;99.90
63802;DHT22;49949;43.060;25.624;2023-04-19T04:58:04;9.80;99.90
63802;DHT22;49949;43.060;25.624;2023-04-19T05:00:30;9.70;99.90
63802;DHT22;49949;43.060;25.624;2023-04-19T05:02:57;9.70;99.90
63802;DHT22;49949;43.060;25.624;2023-04-19T05:05:23;9.70;99.90
63802;DHT22;49949;43.060;25.624;2023-04-19T05:07:48;9.70;99.90
63802;DHT22;49949;43.060;25.624;2023-04-19T05:10:14;9.70;99.90
63802;DHT22;49949;43.060;25.624;2023-04-19T05:12:40;9.70;99.90
63802;DHT22;49949;43.060;25.624;2023-04-19T05:15:06;9.70;99.90
63802;DHT22;49949;43.060;25.624;2023-04-19T05:17:32;9.70;99.90
63802;DHT22;49949;43.060;25.624;2023-04-19T05:19:58;9.60;99.90
63802;DHT22;49949;43.060;25.624;2023-04-19T05:22:24;9.50;99.90
63802;DHT22;49949;43.060;25.624;2023-04-19T05:24:50;9.50;99.90
63802;DHT22;49949;43.060;25.624;2023-04-19T05:27:15;9.50;99.90
63802;DHT22;49949;43.060;25.624;2023-04-19T05:29:41;9.40;99.90
63802;DHT22;49949;43.060;25.624;2023-04-19T05:32:07;9.30;99.90
63802;DHT22;49949;43.060;25.624;2023-04-19T05:34:33;9.20;99.90
63802;DHT22;49949;43.060;25.624;2023-04-19T05:36:59;9.20;99.90
63802;DHT22;49949;43.060;25.624;2023-04-19T05:39:25;9.20;99.90
63802;DHT22;49949;43.060;25.624;2023-04-19T05:41:51;9.20;99.90
63802;DHT22;49949;43.060;25.624;2023-04-19T05:44:16;9.20;99.90
63802;DHT22;49949;43.060;25.624;2023-04-19T05:46:42;9.20;99.90
63802;DHT22;49949;43.060;25.624;2023-04-19T05:49:08;9.20;99.90
63802;DHT22;49949;43.060;25.624;2023-04-19T05:51:33;9.20;99.90
63802;DHT22;49949;43.060;25.624;2023-04-19T05:53:59;9.20;99.90
63802;DHT22;49949;43.060;25.624;2023-04-19T05:56:25;9.20;99.90
63802;DHT22;49949;43.060;25.624;2023-04-19T05:58:51;9.20;99.90
63802;DHT22;49949;43.060;25.624;2023-04-19T06:01:17;9.20;99.90
63802;DHT22;49949;43.060;25.624;2023-04-19T06:03:42;9.20;99.90
63802;DHT22;49949;43.060;25.624;2023-04-19T06:06:08;9.20;99.90
63802;DHT22;49949;43.060;25.624;2023-04-19T06:08:34;9.20;99.90
63802;DHT22;49949;43.060;25.624;2023-04-19T06:11:00;9.20;99.90
63802;DHT22;49949;43.060;25.624;2023-04-19T06:13:26;9.30;99.90
63802;DHT22;49949;43.060;25.624;2023-04-19T06:15:51;9.30;99.90
63802;DHT22;49949;43.060;25.624;2023-04-19T06:18:17;9.20;99.90
63802;DHT22;49949;43.060;25.624;2023-04-19T06:20:43;9.20;99.90
63802;DHT22;49949;43.060;25.624;2023-04-19T06:23:08;9.20;99.90
63802;DHT22;49949;43.060;25.624;2023-04-19T06:25:34;9.20;99.90
63802;DHT22;49949;43.060;25.624;2023-04-19T06:28:00;9.20;99.90
63802;DHT22;49949;43.060;25.624;2023-04-19T06:30:26;9.20;99.90
63802;DHT22;49949;43.060;25.624;2023-04-19T06:32:51;9.30;99.90
63802;DHT22;49949;43.060;25.624;2023-04-19T06:35:17;9.20;99.90
63802;DHT22;49949;43.060;25.624;2023-04-19T06:37:43;9.20;99.90
63802;DHT22;49949;43.060;25.624;2023-04-19T06:40:09;9.20;99.90
63802;DHT22;49949;43.060;25.624;2023-04-19T06:42:36;9.20;99.90
63802;DHT22;49949;43.060;25.624;2023-04-19T06:45:02;9.20;99.90
63802;DHT22;49949;43.060;25.624;2023-04-19T06:47:28;9.20;99.90
63802;DHT22;49949;43.060;25.624;2023-04-19T06:49:55;9.30;99.90
63802;DHT22;49949;43.060;25.624;2023-04-19T06:52:21;9.30;99.90
63802;DHT22;49949;43.060;25.624;2023-04-19T06:54:50;9.30;99.90
63802;DHT22;49949;43.060;25.624;2023-04-19T06:57:16;9.40;99.90
63802;DHT22;49949;43.060;25.624;2023-04-19T06:59:42;9.40;99.90
63802;DHT22;49949;43.060;25.624;2023-04-19T07:02:08;9.40;99.90
63802;DHT22;49949;43.060;25.624;2023-04-19T07:04:34;9.50;99.90
63802;DHT22;49949;43.060;25.624;2023-04-19T07:07:00;9.50;99.90
63802;DHT22;49949;43.060;25.624;2023-04-19T07:09:26;9.50;99.90
63802;DHT22;49949;43.060;25.624;2023-04-19T07:11:52;9.50;99.90
63802;DHT22;49949;43.060;25.624;2023-04-19T07:14:18;9.60;99.90
63802;DHT22;49949;43.060;25.624;2023-04-19T07:16:44;9.60;99.90
63802;DHT22;49949;43.060;25.624;2023-04-19T07:19:11;9.60;99.90
63802;DHT22;49949;43.060;25.624;2023-04-19T07:21:37;9.60;99.90
63802;DHT22;49949;43.060;25.624;2023-04-19T07:24:04;9.70;99.90
63802;DHT22;49949;43.060;25.624;2023-04-19T07:26:31;9.70;99.90
63802;DHT22;49949;43.060;25.624;2023-04-19T07:28:56;9.80;99.90
63802;DHT22;49949;43.060;25.624;2023-04-19T07:31:22;9.80;99.90
63802;DHT22;49949;43.060;25.624;2023-04-19T07:33:50;9.80;99.90
63802;DHT22;49949;43.060;25.624;2023-04-19T07:36:16;9.80;99.90
63802;DHT22;49949;43.060;25.624;2023-04-19T07:38:41;9.90;99.90
63802;DHT22;49949;43.060;25.624;2023-04-19T07:41:07;9.80;99.90
63802;DHT22;49949;43.060;25.624;2023-04-19T07:43:33;9.90;99.90
63802;DHT22;49949;43.060;25.624;2023-04-19T07:45:59;9.90;99.90
63802;DHT22;49949;43.060;25.624;2023-04-19T07:48:25;9.80;99.90
63802;DHT22;49949;43.060;25.624;2023-04-19T07:50:51;9.90;99.90
63802;DHT22;49949;43.060;25.624;2023-04-19T07:53:17;10.00;99.90
63802;DHT22;49949;43.060;25.624;2023-04-19T07:55:43;10.00;99.90
63802;DHT22;49949;43.060;25.624;2023-04-19T07:58:10;10.10;99.90
63802;DHT22;49949;43.060;25.624;2023-04-19T08:00:36;10.20;99.90
63802;DHT22;49949;43.060;25.624;2023-04-19T08:03:02;10.20;99.90
63802;DHT22;49949;43.060;25.624;2023-04-19T08:05:29;10.30;99.90
63802;DHT22;49949;43.060;25.624;2023-04-19T08:07:55;10.20;99.90
63802;DHT22;49949;43.060;25.624;2023-04-19T08:10:22;10.20;99.90
63802;DHT22;49949;43.060;25.624;2023-04-19T08:12:48;10.20;99.90
63802;DHT22;49949;43.060;25.624;2023-04-19T08:15:14;10.30;99.90
63802;DHT22;49949;43.060;25.624;2023-04-19T08:17:41;10.20;99.90
63802;DHT22;49949;43.060;25.624;2023-04-19T08:20:10;10.20;99.90
63802;DHT22;49949;43.060;25.624;2023-04-19T08:22:39;10.30;99.90
63802;DHT22;49949;43.060;25.624;2023-04-19T08:25:06;10.40;99.90
63802;DHT22;49949;43.060;25.624;2023-04-19T08:27:32;10.50;99.90
63802;DHT22;49949;43.060;25.624;2023-04-19T08:29:58;10.60;99.90
63802;DHT22;49949;43.060;25.624;2023-04-19T08:32:23;10.80;99.90
63802;DHT22;49949;43.060;25.624;2023-04-19T08:34:49;10.90;99.90
63802;DHT22;49949;43.060;25.624;2023-04-19T08:37:15;10.90;99.90
63802;DHT22;49949;43.060;25.624;2023-04-19T08:39:40;11.00;99.90
63802;DHT22;49949;43.060;25.624;2023-04-19T08:42:08;11.10;99.90
63802;DHT22;49949;43.060;25.624;2023-04-19T08:44:35;11.10;99.90
63802;DHT22;49949;43.060;25.624;2023-04-19T08:47:03;11.10;99.90
63802;DHT22;49949;43.060;25.624;2023-04-19T08:49:30;11.10;99.90
63802;DHT22;49949;43.060;25.624;2023-04-19T08:51:59;11.10;99.90
63802;DHT22;49949;43.060;25.624;2023-04-19T08:54:28;11.20;99.90
63802;DHT22;49949;43.060;25.624;2023-04-19T08:56:56;11.30;99.90
63802;DHT22;49949;43.060;25.624;2023-04-19T08:59:22;11.40;99.90
63802;DHT22;49949;43.060;25.624;2023-04-19T09:01:48;11.40;99.90
63802;DHT22;49949;43.060;25.624;2023-04-19T09:04:14;11.40;99.90
63802;DHT22;49949;43.060;25.624;2023-04-19T09:06:40;11.50;99.90
63802;DHT22;49949;43.060;25.624;2023-04-19T09:11:42;11.80;99.90
63802;DHT22;49949;43.060;25.624;2023-04-19T09:14:09;12.10;99.90
63802;DHT22;49949;43.060;25.624;2023-04-19T09:16:35;12.10;99.90
63802;DHT22;49949;43.060;25.624;2023-04-19T09:19:02;12.20;99.90
63802;DHT22;49949;43.060;25.624;2023-04-19T09:21:29;12.20;99.90
63802;DHT22;49949;43.060;25.624;2023-04-19T09:23:56;12.30;99.90
63802;DHT22;49949;43.060;25.624;2023-04-19T09:26:22;12.30;99.90
63802;DHT22;49949;43.060;25.624;2023-04-19T09:29:01;12.30;99.90
63802;DHT22;49949;43.060;25.624;2023-04-19T09:31:29;12.30;99.90
63802;DHT22;49949;43.060;25.624;2023-04-19T09:33:55;12.40;99.90
63802;DHT22;49949;43.060;25.624;2023-04-19T09:36:32;12.40;99.90
63802;DHT22;49949;43.060;25.624;2023-04-19T09:38:59;12.50;99.90
63802;DHT22;49949;43.060;25.624;2023-04-19T09:41:25;12.60;99.90
63802;DHT22;49949;43.060;25.624;2023-04-19T09:43:51;12.70;99.90
63802;DHT22;49949;43.060;25.624;2023-04-19T09:46:33;12.80;99.90
63802;DHT22;49949;43.060;25.624;2023-04-19T09:49:18;12.90;99.90
63802;DHT22;49949;43.060;25.624;2023-04-19T09:51:54;13.10;99.90
63802;DHT22;49949;43.060;25.624;2023-04-19T09:54:24;13.50;99.90
63802;DHT22;49949;43.060;25.624;2023-04-19T09:56:53;13.30;99.90
63802;DHT22;49949;43.060;25.624;2023-04-19T09:59:18;13.40;99.90
63802;DHT22;49949;43.060;25.624;2023-04-19T10:01:53;13.70;99.90
63802;DHT22;49949;43.060;25.624;2023-04-19T10:04:19;14.20;99.90
63802;DHT22;49949;43.060;25.624;2023-04-19T10:06:50;14.50;99.90
63802;DHT22;49949;43.060;25.624;2023-04-19T10:09:20;14.50;99.90
63802;DHT22;49949;43.060;25.624;2023-04-19T10:11:51;14.30;99.90
63802;DHT22;49949;43.060;25.624;2023-04-19T10:14:24;14.20;99.90
63802;DHT22;49949;43.060;25.624;2023-04-19T10:16:50;14.20;99.90
63802;DHT22;49949;43.060;25.624;2023-04-19T10:19:19;14.00;99.90
63802;DHT22;49949;43.060;25.624;2023-04-19T10:21:47;14.00;99.90
63802;DHT22;49949;43.060;25.624;2023-04-19T10:24:14;13.90;99.90
63802;DHT22;49949;43.060;25.624;2023-04-19T10:32:17;14.20;99.90
63802;DHT22;49949;43.060;25.624;2023-04-19T10:34:45;14.30;99.90
63802;DHT22;49949;43.060;25.624;2023-04-19T10:37:13;14.50;99.90
63802;DHT22;49949;43.060;25.624;2023-04-19T10:39:45;14.80;99.90
63802;DHT22;49949;43.060;25.624;2023-04-19T10:42:10;15.00;99.90
63802;DHT22;49949;43.060;25.624;2023-04-19T10:44:37;15.40;99.90
63802;DHT22;49949;43.060;25.624;2023-04-19T10:47:04;15.30;99.90
63802;DHT22;49949;43.060;25.624;2023-04-19T10:49:30;14.90;99.90
63802;DHT22;49949;43.060;25.624;2023-04-19T10:51:56;14.90;99.90
63802;DHT22;49949;43.060;25.624;2023-04-19T10:54:28;14.70;99.90
63802;DHT22;49949;43.060;25.624;2023-04-19T10:57:06;14.80;99.90
63802;DHT22;49949;43.060;25.624;2023-04-19T10:59:36;14.60;99.90
63802;DHT22;49949;43.060;25.624;2023-04-19T11:02:03;14.60;99.90
63802;DHT22;49949;43.060;25.624;2023-04-19T11:09:33;15.00;99.90
63802;DHT22;49949;43.060;25.624;2023-04-19T11:12:04;15.00;99.90
63802;DHT22;49949;43.060;25.624;2023-04-19T11:14:43;15.20;99.90
63802;DHT22;49949;43.060;25.624;2023-04-19T11:20:00;15.50;99.90
63802;DHT22;49949;43.060;25.624;2023-04-19T11:22:40;15.40;99.90
63802;DHT22;49949;43.060;25.624;2023-04-19T11:27:43;15.70;99.90
63802;DHT22;49949;43.060;25.624;2023-04-19T11:30:16;15.80;99.90
63802;DHT22;49949;43.060;25.624;2023-04-19T11:32:53;15.80;99.90
63802;DHT22;49949;43.060;25.624;2023-04-19T11:35:20;15.70;99.90
63802;DHT22;49949;43.060;25.624;2023-04-19T11:37:46;15.60;99.90
63802;DHT22;49949;43.060;25.624;2023-04-19T11:40:19;15.70;99.90
63802;DHT22;49949;43.060;25.624;2023-04-19T11:42:45;16.00;99.90
63802;DHT22;49949;43.060;25.624;2023-04-19T11:45:12;16.30;99.90
63802;DHT22;49949;43.060;25.624;2023-04-19T11:47:48;16.40;99.90
63802;DHT22;49949;43.060;25.624;2023-04-19T11:50:36;16.60;99.90
63802;DHT22;49949;43.060;25.624;2023-04-19T11:55:35;17.10;99.90
63802;DHT22;49949;43.060;25.624;2023-04-19T11:58:01;17.20;99.90
63802;DHT22;49949;43.060;25.624;2023-04-19T12:00:27;17.00;99.90
63802;DHT22;49949;43.060;25.624;2023-04-19T12:02:53;17.00;99.90
63802;DHT22;49949;43.060;25.624;2023-04-19T12:05:19;17.10;99.90
63802;DHT22;49949;43.060;25.624;2023-04-19T12:08:02;17.00;99.90
63802;DHT22;49949;43.060;25.624;2023-04-19T12:10:29;16.90;99.90
63802;DHT22;49949;43.060;25.624;2023-04-19T12:12:55;17.00;99.90
63802;DHT22;49949;43.060;25.624;2023-04-19T12:15:21;17.10;99.90
63802;DHT22;49949;43.060;25.624;2023-04-19T12:18:00;17.00;99.90
63802;DHT22;49949;43.060;25.624;2023-04-19T12:20:36;16.80;99.90
63802;DHT22;49949;43.060;25.624;2023-04-19T12:23:03;16.50;99.90
63802;DHT22;49949;43.060;25.624;2023-04-19T12:25:29;16.30;99.90
63802;DHT22;49949;43.060;25.624;2023-04-19T12:27:55;16.30;99.90
63802;DHT22;49949;43.060;25.624;2023-04-19T12:30:21;16.30;99.90
63802;DHT22;49949;43.060;25.624;2023-04-19T12:32:47;16.30;99.90
63802;DHT22;49949;43.060;25.624;2023-04-19T12:35:12;16.20;99.90
63802;DHT22;49949;43.060;25.624;2023-04-19T12:37:38;16.10;99.90
63802;DHT22;49949;43.060;25.624;2023-04-19T12:40:04;16.00;99.90
63802;DHT22;49949;43.060;25.624;2023-04-19T12:42:30;15.90;99.90
63802;DHT22;49949;43.060;25.624;2023-04-19T12:44:56;15.80;99.90
63802;DHT22;49949;43.060;25.624;2023-04-19T12:47:21;15.70;99.90
63802;DHT22;49949;43.060;25.624;2023-04-19T12:49:47;15.60;99.90
63802;DHT22;49949;43.060;25.624;2023-04-19T12:52:13;15.60;99.90
63802;DHT22;49949;43.060;25.624;2023-04-19T12:54:39;15.50;99.90
63802;DHT22;49949;43.060;25.624;2023-04-19T12:57:04;15.40;99.90
63802;DHT22;49949;43.060;25.624;2023-04-19T12:59:30;15.40;99.90
63802;DHT22;49949;43.060;25.624;2023-04-19T13:01:56;15.60;99.90
63802;DHT22;49949;43.060;25.624;2023-04-19T13:04:22;15.70;99.90
63802;DHT22;49949;43.060;25.624;2023-04-19T13:06:47;15.70;99.90
63802;DHT22;49949;43.060;25.624;2023-04-19T13:09:13;15.70;99.90
63802;DHT22;49949;43.060;25.624;2023-04-19T13:11:38;15.70;99.90
63802;DHT22;49949;43.060;25.624;2023-04-19T13:14:04;15.70;99.90
63802;DHT22;49949;43.060;25.624;2023-04-19T13:16:30;15.80;99.90
63802;DHT22;49949;43.060;25.624;2023-04-19T13:18:56;15.80;99.90
63802;DHT22;49949;43.060;25.624;2023-04-19T13:21:22;15.60;99.90
63802;DHT22;49949;43.060;25.624;2023-04-19T13:23:48;15.60;99.90
63802;DHT22;49949;43.060;25.624;2023-04-19T13:26:14;15.60;99.90
63802;DHT22;49949;43.060;25.624;2023-04-19T13:28:41;15.60;99.90
63802;DHT22;49949;43.060;25.624;2023-04-19T13:31:07;15.60;99.90
63802;DHT22;49949;43.060;25.624;2023-04-19T13:33:33;15.60;99.90
63802;DHT22;49949;43.060;25.624;2023-04-19T13:35:59;15.70;99.90
63802;DHT22;49949;43.060;25.624;2023-04-19T13:38:24;15.80;99.90
63802;DHT22;49949;43.060;25.624;2023-04-19T13:40:50;15.90;99.90
63802;DHT22;49949;43.060;25.624;2023-04-19T13:43:16;16.00;99.90
63802;DHT22;49949;43.060;25.624;2023-04-19T13:45:42;16.10;99.90
63802;DHT22;49949;43.060;25.624;2023-04-19T13:48:07;16.20;99.90
63802;DHT22;49949;43.060;25.624;2023-04-19T13:50:33;16.40;99.90
63802;DHT22;49949;43.060;25.624;2023-04-19T13:52:59;16.50;99.90
63802;DHT22;49949;43.060;25.624;2023-04-19T13:55:25;16.60;99.90
63802;DHT22;49949;43.060;25.624;2023-04-19T13:57:51;16.70;99.90
63802;DHT22;49949;43.060;25.624;2023-04-19T14:00:17;16.80;99.90
63802;DHT22;49949;43.060;25.624;2023-04-19T14:02:44;16.70;99.90
63802;DHT22;49949;43.060;25.624;2023-04-19T14:05:10;16.80;99.90
63802;DHT22;49949;43.060;25.624;2023-04-19T14:07:38;16.80;99.90
63802;DHT22;49949;43.060;25.624;2023-04-19T14:10:04;16.70;99.90
63802;DHT22;49949;43.060;25.624;2023-04-19T14:12:31;16.60;99.90
63802;DHT22;49949;43.060;25.624;2023-04-19T14:14:57;16.50;99.90
63802;DHT22;49949;43.060;25.624;2023-04-19T14:17:23;16.40;99.90
63802;DHT22;49949;43.060;25.624;2023-04-19T14:19:49;16.20;99.90
63802;DHT22;49949;43.060;25.624;2023-04-19T14:22:17;16.10;99.90
63802;DHT22;49949;43.060;25.624;2023-04-19T14:24:43;16.10;99.90
63802;DHT22;49949;43.060;25.624;2023-04-19T14:27:11;15.90;99.90
63802;DHT22;49949;43.060;25.624;2023-04-19T14:29:36;15.90;99.90
63802;DHT22;49949;43.060;25.624;2023-04-19T14:32:02;15.90;99.90
63802;DHT22;49949;43.060;25.624;2023-04-19T14:34:28;15.80;99.90
63802;DHT22;49949;43.060;25.624;2023-04-19T14:36:53;15.60;99.90
63802;DHT22;49949;43.060;25.624;2023-04-19T14:39:19;15.40;99.90
63802;DHT22;49949;43.060;25.624;2023-04-19T14:41:45;15.40;99.90
63802;DHT22;49949;43.060;25.624;2023-04-19T14:44:10;15.30;99.90
63802;DHT22;49949;43.060;25.624;2023-04-19T14:46:36;15.00;99.90
63802;DHT22;49949;43.060;25.624;2023-04-19T14:49:02;14.80;99.90
63802;DHT22;49949;43.060;25.624;2023-04-19T14:51:28;14.70;99.90
63802;DHT22;49949;43.060;25.624;2023-04-19T14:53:54;14.50;99.90
63802;DHT22;49949;43.060;25.624;2023-04-19T14:56:20;14.30;99.90
63802;DHT22;49949;43.060;25.624;2023-04-19T14:58:45;14.20;99.90
63802;DHT22;49949;43.060;25.624;2023-04-19T15:01:12;14.10;99.90
63802;DHT22;49949;43.060;25.624;2023-04-19T15:03:38;14.30;99.90
63802;DHT22;49949;43.060;25.624;2023-04-19T15:06:04;14.30;99.90
63802;DHT22;49949;43.060;25.624;2023-04-19T15:08:30;14.40;99.90
63802;DHT22;49949;43.060;25.624;2023-04-19T15:10:56;14.40;99.90
63802;DHT22;49949;43.060;25.624;2023-04-19T15:13:21;14.50;99.90
63802;DHT22;49949;43.060;25.624;2023-04-19T15:15:47;14.60;99.90
63802;DHT22;49949;43.060;25.624;2023-04-19T15:18:13;14.70;99.90
63802;DHT22;49949;43.060;25.624;2023-04-19T15:20:41;14.90;99.90
63802;DHT22;49949;43.060;25.624;2023-04-19T15:23:07;15.00;99.90
63802;DHT22;49949;43.060;25.624;2023-04-19T15:25:33;15.20;99.90
63802;DHT22;49949;43.060;25.624;2023-04-19T15:27:59;15.20;99.90
63802;DHT22;49949;43.060;25.624;2023-04-19T15:30:25;15.20;99.90
63802;DHT22;49949;43.060;25.624;2023-04-19T15:32:51;15.20;99.90
63802;DHT22;49949;43.060;25.624;2023-04-19T15:35:16;15.10;99.90
63802;DHT22;49949;43.060;25.624;2023-04-19T15:37:42;15.10;99.90
63802;DHT22;49949;43.060;25.624;2023-04-19T15:40:09;15.20;99.90